createdAt,value
2022-09-03T00:00:20.370Z,99249.47
2022-09-03T00:06:51.287Z,99241.25
2022-09-03T00:13:00.280Z,99248.63
2022-09-03T00:19:04.011Z,99237.22
2022-09-03T00:25:14.527Z,99242.22
2022-09-03T00:31:29.432Z,99238.00
2022-09-03T00:37:38.022Z,99237.59
2022-09-03T00:44:26.331Z,99234.91
2022-09-03T00:51:03.547Z,99232.06
2022-09-03T00:57:54.100Z,99228.16
2022-09-03T01:04:06.601Z,99217.00
2022-09-03T01:10:32.312Z,99226.84
2022-09-03T01:16:47.717Z,99218.97
2022-09-03T01:23:14.019Z,99222.28
2022-09-03T01:29:39.678Z,99230.81
2022-09-03T01:35:48.677Z,99241.13
2022-09-03T01:42:16.268Z,99236.84
2022-09-03T01:48:54.018Z,99235.31
2022-09-03T01:55:30.127Z,99234.69
2022-09-03T02:01:49.507Z,99244.09
2022-09-03T02:08:02.900Z,99243.03
2022-09-03T02:14:05.341Z,99236.50
2022-09-03T02:20:12.031Z,99238.13
2022-09-03T02:26:20.879Z,99247.19
2022-09-03T02:32:23.027Z,99238.06
2022-09-03T02:38:26.684Z,99230.88
2022-09-03T02:44:35.229Z,99237.53
2022-09-03T02:50:43.440Z,99248.94
2022-09-03T02:56:48.334Z,99243.31
2022-09-03T03:02:50.722Z,99235.22
2022-09-03T03:08:56.150Z,99222.66
2022-09-03T03:14:58.129Z,99224.66
2022-09-03T03:21:09.824Z,99219.72
2022-09-03T03:27:13.245Z,99214.94
2022-09-03T03:33:15.288Z,99227.94
2022-09-03T03:39:17.352Z,99221.88
2022-09-03T03:45:20.085Z,99231.78
2022-09-03T03:51:22.041Z,99229.31
2022-09-03T03:57:24.227Z,99230.06
2022-09-03T04:03:26.168Z,99231.28
2022-09-03T04:09:28.109Z,99223.47
2022-09-03T04:15:30.044Z,99220.63
2022-09-03T04:21:32.063Z,99220.78
2022-09-03T04:27:34.030Z,99224.22
2022-09-03T04:33:38.236Z,99210.72
2022-09-03T04:39:40.308Z,99211.84
2022-09-03T04:45:42.327Z,99210.56
2022-09-03T04:51:44.309Z,99215.50
2022-09-03T04:57:46.256Z,99208.88
2022-09-03T05:03:48.861Z,99213.56
2022-09-03T05:09:50.797Z,99220.53
2022-09-03T05:15:52.733Z,99220.31
2022-09-03T05:21:54.683Z,99216.47
2022-09-03T05:27:57.554Z,99215.88
2022-09-03T05:34:03.954Z,99217.09
2022-09-03T05:40:07.061Z,99209.38
2022-09-03T05:46:15.488Z,99217.94
2022-09-03T05:52:19.232Z,99226.09
2022-09-03T05:58:21.269Z,99232.47
2022-09-03T06:04:23.255Z,99217.00
2022-09-03T06:10:29.229Z,99233.50
2022-09-03T06:16:38.896Z,99225.59
2022-09-03T06:22:41.009Z,99230.41
2022-09-03T06:28:44.207Z,99223.72
2022-09-03T06:34:46.174Z,99227.59
2022-09-03T06:40:54.727Z,99227.13
2022-09-03T06:47:00.390Z,99228.72
2022-09-03T06:53:02.436Z,99245.66
2022-09-03T06:59:11.410Z,99259.34
2022-09-03T07:05:13.452Z,99283.31
2022-09-03T07:11:20.182Z,99269.44
2022-09-03T07:17:22.120Z,99255.53
2022-09-03T07:23:24.117Z,99239.78
2022-09-03T07:29:26.109Z,99222.88
2022-09-03T07:35:28.465Z,99219.63
2022-09-03T07:41:33.351Z,99221.81
2022-09-03T07:47:35.936Z,99217.22
2022-09-03T07:53:38.129Z,99216.13
2022-09-03T07:59:40.707Z,99224.78
2022-09-03T08:05:42.760Z,99217.41
2022-09-03T08:11:44.738Z,99222.00
2022-09-03T08:17:46.741Z,99224.25
2022-09-03T08:23:52.242Z,99230.97
2022-09-03T08:29:54.170Z,99229.94
2022-09-03T08:35:56.333Z,99221.06
2022-09-03T08:42:27.412Z,99228.47
2022-09-03T08:48:30.009Z,99234.34
2022-09-03T08:54:33.190Z,99239.94
2022-09-03T09:01:11.940Z,99240.81
2022-09-03T09:07:24.415Z,99233.97
2022-09-03T09:13:44.036Z,99229.63
2022-09-03T09:20:16.857Z,99234.97
2022-09-03T09:26:22.057Z,99218.47
2022-09-03T09:32:23.990Z,99229.44
2022-09-03T09:38:38.294Z,99231.72
2022-09-03T09:44:43.394Z,99227.13
2022-09-03T09:50:45.682Z,99208.22
2022-09-03T09:57:04.994Z,99215.44
2022-09-03T10:03:12.303Z,99220.88
2022-09-03T10:09:23.338Z,99206.09
2022-09-03T10:15:46.527Z,99213.94
2022-09-03T10:22:17.907Z,99199.69
2022-09-03T10:28:26.021Z,99214.69
2022-09-03T10:35:08.236Z,99210.44
2022-09-03T10:41:59.539Z,99202.91
2022-09-03T10:48:29.197Z,99195.34
2022-09-03T10:54:42.796Z,99202.25
2022-09-03T11:00:58.203Z,99192.41
2022-09-03T11:07:09.434Z,99184.25
2022-09-03T11:13:36.411Z,99185.53
2022-09-03T11:19:52.931Z,99169.34
2022-09-03T11:26:02.260Z,99187.91
2022-09-03T11:32:21.813Z,99164.09
2022-09-03T11:38:27.452Z,99168.84
2022-09-03T11:44:51.809Z,99177.19
2022-09-03T11:50:55.523Z,99154.84
2022-09-03T11:57:12.348Z,99149.28
2022-09-03T12:03:18.772Z,99148.94
2022-09-03T12:10:08.148Z,99158.25
2022-09-03T12:16:34.467Z,99140.53
2022-09-03T12:22:42.134Z,99149.06
2022-09-03T12:28:59.920Z,99149.53
2022-09-03T12:42:05.577Z,99142.38
2022-09-03T12:48:17.812Z,99145.75
2022-09-03T12:54:20.306Z,99131.13
2022-09-03T13:00:22.836Z,99127.38
2022-09-03T13:06:41.046Z,99131.16
2022-09-03T13:12:53.394Z,99125.28
2022-09-03T13:19:04.226Z,99113.94
2022-09-03T13:25:32.795Z,99107.72
2022-09-03T13:31:53.340Z,99106.19
2022-09-03T13:38:31.102Z,99106.13
2022-09-03T13:44:56.577Z,99113.09
2022-09-03T13:51:31.260Z,99108.38
2022-09-03T13:58:02.312Z,99118.06
2022-09-03T14:04:12.475Z,99097.16
2022-09-03T14:10:45.881Z,99097.66
2022-09-03T14:16:55.698Z,99102.81
2022-09-03T14:23:28.288Z,99093.28
2022-09-03T14:29:36.957Z,99091.03
2022-09-03T14:35:57.184Z,99090.09
2022-09-03T14:42:51.670Z,99094.59
2022-09-03T14:49:18.011Z,99086.00
2022-09-03T14:56:15.455Z,99082.59
2022-09-03T15:02:59.563Z,99089.81
2022-09-03T15:09:40.259Z,99090.06
2022-09-03T15:15:42.096Z,99092.22
2022-09-03T15:22:11.184Z,99083.44
2022-09-03T15:28:22.031Z,99095.50
2022-09-03T15:34:32.625Z,99095.00
2022-09-03T15:40:45.018Z,99090.63
2022-09-03T15:46:56.669Z,99085.00
2022-09-03T15:53:37.835Z,99088.88
2022-09-03T16:00:01.846Z,99080.50
2022-09-03T16:06:29.156Z,99090.56
2022-09-03T16:12:49.213Z,99094.94
2022-09-03T16:19:17.935Z,99101.38
2022-09-03T16:25:45.323Z,99093.53
2022-09-03T16:32:10.420Z,99089.53
2022-09-03T16:38:34.755Z,99089.50
2022-09-03T16:45:23.762Z,99097.06
2022-09-03T16:52:01.576Z,99098.94
2022-09-03T16:58:38.733Z,99108.50
2022-09-03T17:04:53.468Z,99105.72
2022-09-03T17:11:22.724Z,99105.16
2022-09-03T17:17:42.935Z,99110.88
2022-09-03T17:24:08.297Z,99116.81
2022-09-03T17:30:28.703Z,99115.66
2022-09-03T17:36:38.451Z,99121.03
2022-09-03T17:42:52.355Z,99126.72
2022-09-03T17:49:07.812Z,99128.00
2022-09-03T17:55:29.452Z,99130.88
2022-09-03T18:01:38.762Z,99143.50
2022-09-03T18:07:46.657Z,99144.41
2022-09-03T18:14:17.053Z,99147.84
2022-09-03T18:20:40.664Z,99142.72
2022-09-03T18:27:22.780Z,99150.38
2022-09-03T18:33:44.657Z,99161.91
2022-09-03T18:40:05.989Z,99163.53
2022-09-03T18:48:02.154Z,99178.78
2022-09-03T18:53:54.969Z,99194.03
2022-09-03T19:00:48.516Z,99189.69
2022-09-03T19:07:37.521Z,99190.19
2022-09-03T19:14:00.110Z,99200.00
2022-09-03T19:20:36.569Z,99219.28
2022-09-03T19:27:10.520Z,99211.34
2022-09-03T19:34:29.246Z,99217.88
2022-09-03T19:41:16.808Z,99219.75
2022-09-03T19:48:27.941Z,99226.81
2022-09-03T19:54:49.778Z,99229.81
2022-09-03T20:01:10.750Z,99238.06
2022-09-03T20:07:31.616Z,99231.97
2022-09-03T20:13:54.763Z,99238.69
2022-09-03T20:20:25.251Z,99251.38
2022-09-03T20:26:46.538Z,99258.31
2022-09-03T20:33:25.733Z,99252.78
2022-09-03T20:39:38.169Z,99271.38
2022-09-03T20:46:17.713Z,99270.97
2022-09-03T20:52:45.931Z,99271.25
2022-09-03T20:59:26.274Z,99263.97
2022-09-03T21:06:31.710Z,99268.09
2022-09-03T21:13:02.033Z,99274.41
2022-09-03T21:19:17.498Z,99277.78
2022-09-03T21:25:41.014Z,99270.66
2022-09-03T21:32:15.806Z,99283.47
2022-09-03T21:38:25.029Z,99272.03
2022-09-03T21:44:56.074Z,99265.59
2022-09-03T21:51:04.463Z,99273.38
2022-09-03T21:57:49.990Z,99288.00
2022-09-03T22:03:53.155Z,99291.66
2022-09-03T22:10:47.025Z,99284.13
2022-09-03T22:17:16.834Z,99291.56
2022-09-03T22:23:55.983Z,99280.53
2022-09-03T22:30:13.803Z,99288.91
2022-09-03T22:36:41.715Z,99293.66
2022-09-03T22:43:02.464Z,99291.56
2022-09-03T22:49:16.617Z,99301.44
2022-09-03T22:55:25.276Z,99301.84
2022-09-03T23:01:41.032Z,99297.19
2022-09-03T23:08:09.500Z,99301.28
2022-09-03T23:14:18.651Z,99302.88
2022-09-03T23:20:28.233Z,99311.19
2022-09-03T23:26:49.470Z,99315.91
2022-09-03T23:32:58.313Z,99313.91
2022-09-03T23:39:28.277Z,99315.81
2022-09-03T23:46:05.576Z,99313.13
2022-09-03T23:52:44.783Z,99326.13
2022-09-03T23:59:20.350Z,99322.91
